createdAt,value
2022-09-13T00:01:01.878Z,95623.94
2022-09-13T00:03:31.220Z,95620.19
2022-09-13T00:06:01.733Z,95617.25
2022-09-13T00:08:30.166Z,95612.78
2022-09-13T00:11:00.125Z,95617.63
2022-09-13T00:13:29.807Z,95611.47
2022-09-13T00:16:02.140Z,95599.41
2022-09-13T00:18:30.741Z,95596.22
2022-09-13T00:21:08.457Z,95592.50
2022-09-13T00:23:39.340Z,95596.84
2022-09-13T00:26:12.924Z,95597.34
2022-09-13T00:28:45.585Z,95579.88
2022-09-13T00:31:14.267Z,95570.94
2022-09-13T00:33:43.555Z,95584.16
2022-09-13T00:36:13.054Z,95578.81
2022-09-13T00:38:42.874Z,95579.66
2022-09-13T00:41:15.894Z,95580.72
2022-09-13T00:43:49.652Z,95582.94
2022-09-13T00:46:24.982Z,95587.97
2022-09-13T00:48:55.030Z,95584.72
2022-09-13T00:51:23.846Z,95580.88
2022-09-13T00:53:53.490Z,95581.06
2022-09-13T00:56:23.812Z,95577.59
2022-09-13T00:59:01.330Z,95579.69
2022-09-13T01:01:32.782Z,95569.53
2022-09-13T01:04:03.316Z,95576.19
2022-09-13T01:06:39.803Z,95572.94
2022-09-13T01:09:10.976Z,95578.25
2022-09-13T01:11:42.770Z,95575.50
2022-09-13T01:14:12.499Z,95573.53
2022-09-13T01:16:42.972Z,95569.47
2022-09-13T01:19:14.145Z,95570.50
2022-09-13T01:22:22.139Z,95567.53
2022-09-13T01:25:16.217Z,95566.72
2022-09-13T01:27:50.691Z,95560.69
2022-09-13T01:30:20.939Z,95566.06
2022-09-13T01:33:19.474Z,95566.06
2022-09-13T01:36:04.350Z,95564.09
2022-09-13T01:38:43.843Z,95563.47
2022-09-13T01:41:23.105Z,95562.31
2022-09-13T01:43:54.317Z,95567.75
2022-09-13T01:46:26.550Z,95563.75
2022-09-13T01:48:58.334Z,95557.34
2022-09-13T01:51:30.113Z,95548.13
2022-09-13T01:54:08.413Z,95549.88
2022-09-13T01:56:39.717Z,95534.03
2022-09-13T01:59:11.687Z,95532.81
2022-09-13T02:01:42.688Z,95538.56
2022-09-13T02:04:12.943Z,95533.75
2022-09-13T02:06:43.138Z,95534.84
2022-09-13T02:09:14.799Z,95531.63
2022-09-13T02:11:46.327Z,95534.31
2022-09-13T02:14:16.684Z,95528.38
2022-09-13T02:16:50.683Z,95519.94
2022-09-13T02:19:21.882Z,95524.56
2022-09-13T02:21:53.765Z,95521.22
2022-09-13T02:24:25.238Z,95524.53
2022-09-13T02:26:54.734Z,95512.34
2022-09-13T02:29:24.663Z,95512.53
2022-09-13T02:31:58.285Z,95511.94
2022-09-13T02:34:27.959Z,95507.91
2022-09-13T02:36:56.285Z,95504.97
2022-09-13T02:39:26.580Z,95504.28
2022-09-13T02:41:57.810Z,95506.88
2022-09-13T02:44:28.523Z,95505.25
2022-09-13T02:47:15.783Z,95504.69
2022-09-13T02:49:51.669Z,95499.25
2022-09-13T02:52:23.442Z,95498.69
2022-09-13T02:54:54.536Z,95500.69
2022-09-13T02:57:25.080Z,95499.41
2022-09-13T02:59:53.457Z,95489.34
2022-09-13T03:02:24.279Z,95500.50
2022-09-13T03:04:54.059Z,95499.19
2022-09-13T03:07:22.438Z,95502.16
2022-09-13T03:09:51.578Z,95495.81
2022-09-13T03:12:30.154Z,95484.84
2022-09-13T03:15:00.959Z,95480.00
2022-09-13T03:17:39.339Z,95466.56
2022-09-13T03:20:12.604Z,95477.22
2022-09-13T03:23:09.574Z,95475.81
2022-09-13T03:25:50.158Z,95473.94
2022-09-13T03:28:24.513Z,95476.44
2022-09-13T03:31:06.913Z,95474.25
2022-09-13T03:33:49.732Z,95460.31
2022-09-13T03:36:23.171Z,95463.97
2022-09-13T03:38:59.712Z,95471.06
2022-09-13T03:41:29.108Z,95469.19
2022-09-13T03:44:00.343Z,95460.94
2022-09-13T03:46:32.659Z,95472.66
2022-09-13T03:49:04.424Z,95475.19
2022-09-13T03:51:35.131Z,95477.69
2022-09-13T03:54:06.253Z,95477.59
2022-09-13T03:56:34.349Z,95487.75
2022-09-13T03:59:03.403Z,95489.97
2022-09-13T04:01:35.324Z,95491.03
2022-09-13T04:04:14.304Z,95496.22
2022-09-13T04:06:42.650Z,95497.81
2022-09-13T04:09:14.270Z,95494.63
2022-09-13T04:11:43.774Z,95494.22
2022-09-13T04:14:12.340Z,95497.28
2022-09-13T04:16:41.151Z,95494.19
2022-09-13T04:19:11.135Z,95503.94
2022-09-13T04:21:39.336Z,95505.59
2022-09-13T04:24:08.119Z,95510.69
2022-09-13T04:26:36.214Z,95502.63
2022-09-13T04:29:04.520Z,95501.13
2022-09-13T04:31:33.293Z,95504.41
2022-09-13T04:34:01.893Z,95502.00
2022-09-13T04:36:32.571Z,95487.25
2022-09-13T04:39:01.282Z,95486.38
2022-09-13T04:41:29.835Z,95481.59
2022-09-13T04:43:58.249Z,95492.91
2022-09-13T04:46:26.475Z,95489.91
2022-09-13T04:48:54.877Z,95485.47
2022-09-13T04:51:26.718Z,95496.09
2022-09-13T04:53:57.209Z,95491.56
2022-09-13T04:56:26.264Z,95482.72
2022-09-13T04:58:56.795Z,95478.66
2022-09-13T05:01:27.836Z,95478.22
2022-09-13T05:03:56.349Z,95470.34
2022-09-13T05:06:24.797Z,95474.34
2022-09-13T05:08:55.243Z,95477.31
2022-09-13T05:11:25.222Z,95483.59
2022-09-13T05:13:55.363Z,95477.06
2022-09-13T05:16:24.111Z,95482.84
2022-09-13T05:18:52.512Z,95486.72
2022-09-13T05:21:20.848Z,95490.63
2022-09-13T05:23:50.295Z,95496.09
2022-09-13T05:26:18.539Z,95494.13
2022-09-13T05:28:48.496Z,95494.25
2022-09-13T05:31:19.074Z,95491.66
2022-09-13T05:33:49.505Z,95482.38
2022-09-13T05:36:17.876Z,95486.75
2022-09-13T05:38:46.040Z,95485.28
2022-09-13T05:41:14.837Z,95490.03
2022-09-13T05:43:42.934Z,95485.88
2022-09-13T05:46:13.341Z,95486.03
2022-09-13T05:48:41.625Z,95480.31
2022-09-13T05:51:10.462Z,95488.47
2022-09-13T05:53:39.860Z,95491.31
2022-09-13T05:56:13.365Z,95492.31
2022-09-13T05:58:45.549Z,95488.91
2022-09-13T06:01:15.257Z,95485.69
2022-09-13T06:03:48.041Z,95475.59
2022-09-13T06:06:16.362Z,95474.84
2022-09-13T06:08:44.725Z,95479.16
2022-09-13T06:11:13.610Z,95475.53
2022-09-13T06:13:43.282Z,95459.44
2022-09-13T06:16:16.290Z,95456.00
2022-09-13T06:18:45.560Z,95446.50
2022-09-13T06:21:17.949Z,95441.47
2022-09-13T06:23:47.122Z,95448.31
2022-09-13T06:26:16.641Z,95451.25
2022-09-13T06:28:45.283Z,95451.78
2022-09-13T06:31:24.801Z,95462.97
2022-09-13T06:33:57.617Z,95456.00
2022-09-13T06:36:26.633Z,95452.88
2022-09-13T06:38:55.475Z,95464.00
2022-09-13T06:41:27.458Z,95463.09
2022-09-13T06:44:01.706Z,95467.72
2022-09-13T06:46:32.750Z,95465.97
2022-09-13T06:49:02.525Z,95469.47
2022-09-13T06:51:31.913Z,95465.53
2022-09-13T06:54:00.364Z,95462.97
2022-09-13T06:56:30.444Z,95466.06
2022-09-13T06:58:59.723Z,95468.16
2022-09-13T07:01:29.172Z,95473.75
2022-09-13T07:04:00.346Z,95466.50
2022-09-13T07:06:31.072Z,95476.69
2022-09-13T07:09:00.819Z,95471.28
2022-09-13T07:11:31.395Z,95474.59
2022-09-13T07:14:01.603Z,95464.88
2022-09-13T07:16:30.514Z,95473.13
2022-09-13T07:19:02.044Z,95467.19
2022-09-13T07:21:30.428Z,95468.97
2022-09-13T07:23:59.537Z,95473.06
2022-09-13T07:26:28.508Z,95476.84
2022-09-13T07:28:58.059Z,95473.78
2022-09-13T07:31:30.007Z,95471.06
2022-09-13T07:34:00.454Z,95466.94
2022-09-13T07:36:30.057Z,95473.00
2022-09-13T07:38:59.086Z,95469.13
2022-09-13T07:41:29.722Z,95473.81
2022-09-13T07:43:58.461Z,95479.09
2022-09-13T07:46:32.716Z,95487.63
2022-09-13T07:49:02.578Z,95480.03
2022-09-13T07:51:32.823Z,95484.66
2022-09-13T07:54:03.872Z,95480.25
2022-09-13T07:56:35.434Z,95486.03
2022-09-13T07:59:04.729Z,95483.41
2022-09-13T08:01:36.609Z,95490.19
2022-09-13T08:04:09.550Z,95490.84
2022-09-13T08:06:38.504Z,95477.91
2022-09-13T08:09:12.309Z,95488.03
2022-09-13T08:11:46.648Z,95483.19
2022-09-13T08:14:17.758Z,95491.94
2022-09-13T08:16:46.171Z,95498.06
2022-09-13T08:19:16.696Z,95494.44
2022-09-13T08:21:48.015Z,95486.31
2022-09-13T08:24:17.626Z,95492.00
2022-09-13T08:26:45.756Z,95492.00
2022-09-13T08:29:17.707Z,95489.16
2022-09-13T08:31:47.615Z,95486.31
2022-09-13T08:34:21.573Z,95502.28
2022-09-13T08:36:51.608Z,95495.94
2022-09-13T08:39:19.930Z,95490.88
2022-09-13T08:42:02.981Z,95483.59
2022-09-13T08:44:32.102Z,95475.03
2022-09-13T08:47:06.097Z,95470.94
2022-09-13T08:49:38.163Z,95464.44
2022-09-13T08:52:13.519Z,95462.53
2022-09-13T08:54:44.259Z,95466.81
2022-09-13T08:57:16.365Z,95458.03
2022-09-13T08:59:52.433Z,95443.44
2022-09-13T09:02:32.096Z,95458.88
2022-09-13T09:05:05.051Z,95453.56
2022-09-13T09:07:37.970Z,95457.22
2022-09-13T09:10:07.377Z,95468.84
2022-09-13T09:12:39.102Z,95483.75
2022-09-13T09:15:13.690Z,95473.09
2022-09-13T09:17:46.680Z,95477.25
2022-09-13T09:20:25.702Z,95465.97
2022-09-13T09:22:55.515Z,95468.66
2022-09-13T09:25:26.248Z,95462.38
2022-09-13T09:27:55.259Z,95456.75
2022-09-13T09:30:24.566Z,95463.66
2022-09-13T09:33:12.075Z,95470.19
2022-09-13T09:35:51.230Z,95463.09
2022-09-13T09:38:42.950Z,95462.38
2022-09-13T09:41:25.916Z,95460.53
2022-09-13T09:43:58.259Z,95466.50
2022-09-13T09:46:31.994Z,95461.06
2022-09-13T09:53:04.793Z,95453.63
2022-09-13T09:55:34.874Z,95442.78
2022-09-13T09:58:04.463Z,95441.97
2022-09-13T10:00:34.133Z,95430.66
2022-09-13T10:03:04.089Z,95428.63
2022-09-13T10:05:32.894Z,95427.06
2022-09-13T10:44:01.203Z,95420.31
2022-09-13T10:46:31.836Z,95412.75
2022-09-13T10:49:00.270Z,95413.81
2022-09-13T10:51:39.129Z,95416.81
2022-09-13T10:54:19.694Z,95416.38
2022-09-13T10:56:50.579Z,95413.72
2022-09-13T10:59:25.244Z,95411.63
2022-09-13T11:02:16.832Z,95412.94
2022-09-13T11:04:57.580Z,95408.81
2022-09-13T11:07:38.435Z,95403.25
2022-09-13T11:10:09.716Z,95406.75
2022-09-13T11:12:40.832Z,95405.91
2022-09-13T11:15:18.943Z,95411.59
2022-09-13T11:18:10.859Z,95404.75
2022-09-13T11:20:43.461Z,95405.75
2022-09-13T11:23:24.593Z,95404.59
2022-09-13T11:25:58.498Z,95396.41
2022-09-13T11:28:30.947Z,95402.16
2022-09-13T11:31:23.861Z,95391.13
2022-09-13T11:33:59.755Z,95386.91
2022-09-13T11:36:44.919Z,95389.25
2022-09-13T11:39:19.750Z,95372.66
2022-09-13T11:41:52.457Z,95379.63
2022-09-13T11:44:44.535Z,95377.66
2022-09-13T11:47:17.850Z,95386.91
2022-09-13T11:50:00.297Z,95383.41
2022-09-13T11:52:34.563Z,95397.91
2022-09-13T11:55:08.813Z,95391.53
2022-09-13T11:57:39.861Z,95388.72
2022-09-13T12:00:11.363Z,95387.75
2022-09-13T12:02:44.983Z,95385.03
2022-09-13T12:05:24.524Z,95396.44
2022-09-13T12:08:00.175Z,95389.78
2022-09-13T12:10:34.022Z,95396.50
2022-09-13T12:13:02.583Z,95396.78
2022-09-13T12:15:35.766Z,95395.63
2022-09-13T12:18:11.157Z,95386.63
2022-09-13T12:20:41.088Z,95387.59
2022-09-13T12:23:13.081Z,95384.44
2022-09-13T12:25:48.693Z,95381.72
2022-09-13T12:28:20.759Z,95382.88
2022-09-13T12:30:53.543Z,95383.13
2022-09-13T12:33:23.748Z,95376.94
2022-09-13T12:36:10.079Z,95371.09
2022-09-13T12:39:00.096Z,95363.53
2022-09-13T12:41:36.806Z,95367.84
2022-09-13T12:44:33.448Z,95367.56
2022-09-13T12:47:18.849Z,95363.53
2022-09-13T12:50:42.967Z,95359.59
2022-09-13T12:53:40.872Z,95365.94
2022-09-13T12:56:33.380Z,95363.63
2022-09-13T12:59:13.702Z,95361.03
2022-09-13T13:01:44.247Z,95354.94
2022-09-13T13:04:15.604Z,95356.47
2022-09-13T13:06:50.999Z,95349.88
2022-09-13T13:09:28.753Z,95350.88
2022-09-13T13:11:59.296Z,95351.66
2022-09-13T13:14:30.322Z,95356.69
2022-09-13T13:17:34.713Z,95350.44
2022-09-13T13:20:05.413Z,95344.09
2022-09-13T13:22:53.693Z,95347.44
2022-09-13T13:25:33.507Z,95345.13
2022-09-13T13:28:03.158Z,95344.34
2022-09-13T13:31:00.765Z,95333.97
2022-09-13T13:33:31.936Z,95341.50
2022-09-13T13:36:01.245Z,95346.78
2022-09-13T13:38:55.944Z,95335.16
2022-09-13T13:41:42.917Z,95333.38
2022-09-13T13:44:53.247Z,95336.03
2022-09-13T13:48:11.102Z,95331.78
2022-09-13T13:51:20.296Z,95329.22
2022-09-13T13:53:57.903Z,95325.50
2022-09-13T13:56:50.224Z,95337.69
2022-09-13T13:59:24.465Z,95341.13
2022-09-13T14:01:56.299Z,95326.75
2022-09-13T14:04:49.429Z,95334.72
2022-09-13T14:07:37.373Z,95323.16
2022-09-13T14:10:09.094Z,95322.97
2022-09-13T14:12:46.410Z,95323.28
2022-09-13T14:15:24.053Z,95312.56
2022-09-13T14:18:23.933Z,95310.25
2022-09-13T14:20:59.911Z,95306.13
2022-09-13T14:23:29.091Z,95310.13
2022-09-13T14:25:59.806Z,95314.91
2022-09-13T14:28:30.154Z,95308.56
2022-09-13T14:31:02.854Z,95303.91
2022-09-13T14:33:38.529Z,95302.75
2022-09-13T14:36:07.864Z,95295.00
2022-09-13T14:38:37.295Z,95294.22
2022-09-13T14:41:15.697Z,95287.09
2022-09-13T14:43:44.429Z,95288.63
2022-09-13T14:46:15.284Z,95290.47
2022-09-13T14:48:47.246Z,95294.06
2022-09-13T14:51:18.461Z,95286.72
2022-09-13T14:53:47.467Z,95282.69
2022-09-13T14:56:20.824Z,95286.28
2022-09-13T14:58:52.796Z,95282.75
2022-09-13T15:01:25.310Z,95276.88
2022-09-13T15:03:53.783Z,95275.81
2022-09-13T15:06:25.077Z,95270.38
2022-09-13T15:08:56.333Z,95273.09
2022-09-13T15:11:36.250Z,95263.59
2022-09-13T15:14:27.259Z,95262.94
2022-09-13T15:16:57.039Z,95278.50
2022-09-13T15:19:46.243Z,95270.88
2022-09-13T15:22:17.133Z,95272.47
2022-09-13T15:24:48.058Z,95267.03
2022-09-13T15:27:32.626Z,95264.19
2022-09-13T15:30:03.896Z,95260.94
2022-09-13T15:32:35.586Z,95266.31
2022-09-13T15:35:07.389Z,95272.75
2022-09-13T15:37:38.003Z,95271.34
2022-09-13T15:40:21.682Z,95274.34
2022-09-13T15:42:53.865Z,95269.16
2022-09-13T15:45:24.499Z,95273.91
2022-09-13T15:47:55.859Z,95274.44
2022-09-13T15:50:27.134Z,95276.09
2022-09-13T15:52:56.666Z,95269.84
2022-09-13T15:55:26.981Z,95275.91
2022-09-13T15:57:57.041Z,95268.25
2022-09-13T16:00:27.184Z,95267.63
2022-09-13T16:02:57.268Z,95269.72
2022-09-13T16:05:26.244Z,95260.91
2022-09-13T16:08:01.196Z,95271.16
2022-09-13T16:10:30.496Z,95272.06
2022-09-13T16:13:05.178Z,95275.72
2022-09-13T16:15:33.618Z,95273.91
2022-09-13T16:18:03.465Z,95274.84
2022-09-13T16:20:34.474Z,95269.56
2022-09-13T16:23:04.780Z,95268.56
2022-09-13T16:25:35.316Z,95265.19
2022-09-13T16:28:05.799Z,95259.78
2022-09-13T16:30:37.443Z,95255.94
2022-09-13T16:33:06.724Z,95254.34
2022-09-13T16:35:35.274Z,95264.91
2022-09-13T16:38:05.049Z,95257.53
2022-09-13T16:40:36.255Z,95253.66
2022-09-13T16:43:12.854Z,95256.69
2022-09-13T16:45:42.210Z,95259.41
2022-09-13T16:48:22.436Z,95260.50
2022-09-13T16:51:01.595Z,95270.66
2022-09-13T16:53:37.343Z,95266.00
2022-09-13T16:56:12.064Z,95258.28
2022-09-13T16:58:45.432Z,95265.34
2022-09-13T17:01:18.836Z,95265.75
2022-09-13T17:03:54.443Z,95268.06
2022-09-13T17:06:25.586Z,95271.31
2022-09-13T17:08:57.866Z,95276.81
2022-09-13T17:11:39.033Z,95271.47
2022-09-13T17:14:15.411Z,95265.31
2022-09-13T17:16:49.840Z,95262.22
2022-09-13T17:19:23.264Z,95256.84
2022-09-13T17:22:00.448Z,95259.59
2022-09-13T17:24:39.635Z,95255.50
2022-09-13T17:27:21.499Z,95260.16
2022-09-13T17:29:59.361Z,95264.81
2022-09-13T17:35:39.263Z,95261.88
2022-09-13T17:38:09.643Z,95258.44
2022-09-13T17:40:38.444Z,95260.81
2022-09-13T17:43:08.005Z,95247.50
2022-09-13T17:45:39.903Z,95251.34
2022-09-13T17:48:10.139Z,95254.41
2022-09-13T17:50:42.007Z,95247.91
2022-09-13T17:53:12.434Z,95253.81
2022-09-13T17:55:48.499Z,95247.31
2022-09-13T17:58:16.924Z,95245.88
2022-09-13T18:00:47.087Z,95240.63
2022-09-13T18:03:16.221Z,95241.28
2022-09-13T18:05:48.252Z,95245.56
2022-09-13T18:08:16.633Z,95242.41
2022-09-13T18:11:10.620Z,95237.66
2022-09-13T18:13:40.945Z,95240.97
2022-09-13T18:16:21.203Z,95237.03
2022-09-13T18:18:52.292Z,95238.47
2022-09-13T18:21:21.980Z,95234.00
2022-09-13T18:23:52.842Z,95243.66
2022-09-13T18:26:22.433Z,95243.50
2022-09-13T18:28:58.783Z,95238.91
2022-09-13T18:31:29.727Z,95245.09
2022-09-13T18:33:59.735Z,95239.19
2022-09-13T18:36:29.845Z,95235.38
2022-09-13T18:39:03.036Z,95240.97
2022-09-13T18:41:35.804Z,95238.72
2022-09-13T18:44:05.418Z,95240.78
2022-09-13T18:46:37.711Z,95239.16
2022-09-13T18:49:10.231Z,95238.53
2022-09-13T18:51:40.574Z,95233.78
2022-09-13T18:54:15.291Z,95237.94
2022-09-13T18:56:44.084Z,95241.88
2022-09-13T18:59:14.232Z,95242.97
2022-09-13T19:01:49.170Z,95240.41
2022-09-13T19:04:18.593Z,95244.38
2022-09-13T19:06:49.733Z,95249.16
2022-09-13T19:09:20.658Z,95248.38
2022-09-13T19:11:50.507Z,95245.81
2022-09-13T19:14:24.115Z,95247.09
2022-09-13T19:16:55.827Z,95244.34
2022-09-13T19:19:24.739Z,95239.25
2022-09-13T19:21:53.244Z,95240.56
2022-09-13T19:24:22.043Z,95237.56
2022-09-13T19:26:52.177Z,95238.47
2022-09-13T19:29:23.700Z,95240.66
2022-09-13T19:31:56.121Z,95233.97
2022-09-13T19:34:24.963Z,95240.97
2022-09-13T19:36:58.318Z,95239.53
2022-09-13T19:39:29.930Z,95241.81
2022-09-13T19:42:01.073Z,95243.38
2022-09-13T19:44:30.121Z,95244.63
2022-09-13T19:47:49.245Z,95250.69
2022-09-13T19:49:51.125Z,95246.84
2022-09-13T19:52:19.691Z,95246.66
2022-09-13T19:54:49.768Z,95247.78
2022-09-13T19:57:20.281Z,95246.19
2022-09-13T19:59:48.779Z,95241.91
2022-09-13T20:02:19.272Z,95244.91
2022-09-13T20:04:48.816Z,95241.63
2022-09-13T20:07:17.573Z,95239.38
2022-09-13T20:09:47.142Z,95232.06
2022-09-13T20:12:15.964Z,95234.13
2022-09-13T20:14:44.340Z,95233.53
2022-09-13T20:17:12.806Z,95233.69
2022-09-13T20:19:49.669Z,95240.56
2022-09-13T20:22:20.688Z,95238.03
2022-09-13T20:24:49.428Z,95239.78
2022-09-13T20:27:17.931Z,95248.69
2022-09-13T20:29:49.433Z,95243.88
2022-09-13T20:32:18.735Z,95243.09
2022-09-13T20:34:50.962Z,95239.91
2022-09-13T20:37:20.052Z,95233.69
2022-09-13T20:39:48.988Z,95245.03
2022-09-13T20:42:17.916Z,95238.03
2022-09-13T20:44:46.497Z,95234.84
2022-09-13T20:47:15.043Z,95239.81
2022-09-13T20:49:44.110Z,95235.16
2022-09-13T20:52:15.468Z,95238.66
2022-09-13T20:54:44.576Z,95242.97
2022-09-13T20:57:12.852Z,95233.84
2022-09-13T20:59:42.068Z,95230.03
2022-09-13T21:02:11.741Z,95228.44
2022-09-13T21:04:43.480Z,95222.13
2022-09-13T21:07:46.184Z,95222.13
2022-09-13T21:10:14.593Z,95219.75
2022-09-13T21:12:44.332Z,95229.44
2022-09-13T21:15:14.378Z,95230.88
2022-09-13T21:17:43.676Z,95228.50
2022-09-13T21:20:12.201Z,95239.94
2022-09-13T21:22:43.489Z,95231.03
2022-09-13T21:25:12.235Z,95225.97
2022-09-13T21:27:41.418Z,95234.09
2022-09-13T21:30:11.299Z,95226.75
2022-09-13T21:32:41.292Z,95232.31
2022-09-13T21:35:12.146Z,95234.38
2022-09-13T21:37:45.377Z,95239.25
2022-09-13T21:40:17.173Z,95224.97
2022-09-13T21:42:47.380Z,95227.19
2022-09-13T21:45:15.642Z,95238.47
2022-09-13T21:47:46.359Z,95233.38
2022-09-13T21:50:16.518Z,95230.03
2022-09-13T21:52:55.389Z,95239.41
2022-09-13T21:55:23.635Z,95236.06
2022-09-13T21:57:54.914Z,95224.91
2022-09-13T22:00:24.466Z,95225.72
2022-09-13T22:02:53.625Z,95224.59
2022-09-13T22:05:25.284Z,95236.22
2022-09-13T22:07:55.261Z,95224.13
2022-09-13T22:10:24.183Z,95222.53
2022-09-13T22:12:52.908Z,95228.94
2022-09-13T22:15:23.509Z,95220.66
2022-09-13T22:17:52.230Z,95214.63
2022-09-13T22:20:22.166Z,95210.91
2022-09-13T22:22:53.272Z,95209.38
2022-09-13T22:25:24.227Z,95199.50
2022-09-13T22:27:52.562Z,95199.03
2022-09-13T22:30:21.061Z,95191.59
2022-09-13T22:32:50.628Z,95188.41
2022-09-13T22:35:19.148Z,95188.41
2022-09-13T22:37:50.115Z,95195.72
2022-09-13T22:40:21.290Z,95194.63
2022-09-13T22:42:53.974Z,95193.50
2022-09-13T22:45:22.588Z,95195.72
2022-09-13T22:47:51.344Z,95202.72
2022-09-13T22:50:20.458Z,95203.53
2022-09-13T22:52:50.165Z,95211.31
2022-09-13T22:55:19.242Z,95223.03
2022-09-13T22:57:49.034Z,95223.03
2022-09-13T23:00:21.208Z,95220.34
2022-09-13T23:02:51.074Z,95222.88
2022-09-13T23:05:20.703Z,95220.66
2022-09-13T23:07:49.333Z,95217.84
2022-09-13T23:10:19.679Z,95208.13
2022-09-13T23:12:49.237Z,95213.06
2022-09-13T23:15:22.557Z,95214.50
2022-09-13T23:17:51.903Z,95205.13
2022-09-13T23:20:21.213Z,95201.97
2022-09-13T23:22:49.618Z,95196.41
2022-09-13T23:25:19.849Z,95194.69
2022-09-13T23:27:49.562Z,95188.34
2022-09-13T23:30:22.087Z,95202.50
2022-09-13T23:32:51.310Z,95211.25
2022-09-13T23:35:22.984Z,95206.94
2022-09-13T23:37:52.163Z,95214.56
2022-09-13T23:40:22.870Z,95213.16
2022-09-13T23:42:51.600Z,95206.94
2022-09-13T23:45:21.933Z,95203.75
2022-09-13T23:47:53.131Z,95203.16
2022-09-13T23:50:21.420Z,95202.34
2022-09-13T23:52:50.189Z,95202.34
2022-09-13T23:55:19.472Z,95202.16
2022-09-13T23:57:48.117Z,95204.41
